Viking Amber — 9V7985 — position and weather

sailwx.info

Track history (hours):
 
Tides and Currents Weather Stations Pressure Air Temp Water Temp Dewpoint Dewpoint Depression Visibility Wind Speed Wind Dir Waves Ship Positions

Viking Amber

Last reported at 2017-Nov-29 12:13 UTC. Time now 2017-Dec-11 02:00 UTC.
Position N 01°19' E 103°19'.
Warning: this ship's position is 11 days out of date.

Length 167 m; draft 8.6 m.

Type: Cargo ship. MMSI: 563255000.

Date/timePositionNaut miles runAvg speedWind from/ knotsBaromVisibWave heightAir tempDewpointWater temp
2017-Nov-29 12:13N 01°19' E 103°19'312.2
2017-Nov-29 11:57N 01°17' E 103°21'612.3
2017-Nov-29 11:29N 01°13' E 103°26'612.6
2017-Nov-29 10:59N 01°12' E 103°32'612.2
2017-Nov-29 10:30N 01°12' E 103°38'3 6.6
2017-Nov-29 10:00N 01°13' E 103°41'510.5
2017-Nov-29 09:31N 01°16' E 103°45'1 2.3
2017-Nov-29 09:00N 01°17' E 103°45'0 0.0
2017-Nov-29 08:30N 01°17' E 103°45'0 0.0
2017-Nov-29 08:00N 01°17' E 103°45'0 0.0
2017-Nov-29 07:30N 01°17' E 103°45'0 0.0
2017-Nov-29 06:57N 01°17' E 103°45'0 0.0
2017-Nov-29 06:27N 01°17' E 103°45'0 0.0
2017-Nov-29 06:00N 01°17' E 103°45'0 0.0
2017-Nov-29 05:30N 01°17' E 103°45'0 0.0
2017-Nov-29 05:00N 01°17' E 103°45'0 0.0
2017-Nov-29 04:30N 01°17' E 103°45'0 0.0
2017-Nov-29 04:00N 01°17' E 103°45'0 0.0
2017-Nov-29 03:30N 01°17' E 103°45'0 0.0
2017-Nov-29 02:57N 01°17' E 103°45'0 0.0
2017-Nov-29 02:30N 01°17' E 103°45'0 0.0
2017-Nov-29 02:00N 01°17' E 103°45'0 0.0
2017-Nov-29 01:30N 01°17' E 103°45'0 0.0
2017-Nov-29 01:00N 01°17' E 103°45'0 0.0
2017-Nov-29 00:30N 01°17' E 103°45'0 0.0
2017-Nov-29 00:00N 01°17' E 103°45'0 0.0
2017-Nov-28 23:30N 01°17' E 103°45'0 0.0
2017-Nov-28 23:00N 01°17' E 103°45'1 1.2
2017-Nov-28 22:31N 01°17' E 103°45'2 4.7
2017-Nov-28 22:00N 01°15' E 103°46'510.6
2017-Nov-28 21:30N 01°13' E 103°51'4 8.0
2017-Nov-28 21:00N 01°14' E 103°55'510.1
2017-Nov-28 20:30N 01°15' E 103°60'  
2017-Nov-20 00:29N 35°27' E 139°41'0 0.0
2017-Nov-19 23:59N 35°27' E 139°41'0 0.0
2017-Nov-19 23:29N 35°27' E 139°41'0 0.0
2017-Nov-19 22:59N 35°27' E 139°41'0 0.0
2017-Nov-19 22:29N 35°27' E 139°41'0 0.1
2017-Nov-19 22:00N 35°27' E 139°41'2 3.8
2017-Nov-19 21:30N 35°25' E 139°42'1 1.0
2017-Nov-19 20:59N 35°25' E 139°43'0 0.1
2017-Nov-19 20:29N 35°25' E 139°43'0 0.0
2017-Nov-19 19:59N 35°25' E 139°43'0 0.1
2017-Nov-19 19:29N 35°25' E 139°43'0 0.0
2017-Nov-19 18:59N 35°25' E 139°43'0 0.2
2017-Nov-19 18:29N 35°25' E 139°43'0 0.0
2017-Nov-19 17:59N 35°25' E 139°43'0 0.1
2017-Nov-19 17:29N 35°25' E 139°43'0 0.1
2017-Nov-19 16:59N 35°25' E 139°43'0 0.1
2017-Nov-19 16:29N 35°25' E 139°43'0 0.0
2017-Nov-19 15:59N 35°25' E 139°43'0 0.1
2017-Nov-19 15:29N 35°25' E 139°43'0 0.1
2017-Nov-19 14:59N 35°25' E 139°43'0 0.0
2017-Nov-19 14:26N 35°25' E 139°43'0 0.1
2017-Nov-19 13:59N 35°25' E 139°43'0 0.1
2017-Nov-19 13:29N 35°25' E 139°43'0 0.0
2017-Nov-19 12:59N 35°25' E 139°43'0 0.4
2017-Nov-19 12:29N 35°25' E 139°42'  
Track history (hours):
 
Tides and Currents Weather Stations Pressure Air Temp Water Temp Dewpoint Dewpoint Depression Visibility Wind Speed Wind Dir Waves Ship Positions

Viking Amber

Last reported at 2017-Nov-29 12:13 UTC. Time now 2017-Dec-11 02:00 UTC.
Position N 01°19' E 103°19'.
Warning: this ship's position is 11 days out of date.

Length 167 m; draft 8.6 m.

Type: Cargo ship. MMSI: 563255000.

Date/timePositionNaut miles runAvg speedWind from/ knotsBaromVisibWave heightAir tempDewpointWater temp
2017-Nov-29 12:13N 01°19' E 103°19'312.2
2017-Nov-29 11:57N 01°17' E 103°21'612.3
2017-Nov-29 11:29N 01°13' E 103°26'612.6
2017-Nov-29 10:59N 01°12' E 103°32'612.2
2017-Nov-29 10:30N 01°12' E 103°38'3 6.6
2017-Nov-29 10:00N 01°13' E 103°41'510.5
2017-Nov-29 09:31N 01°16' E 103°45'1 2.3
2017-Nov-29 09:00N 01°17' E 103°45'0 0.0
2017-Nov-29 08:30N 01°17' E 103°45'0 0.0
2017-Nov-29 08:00N 01°17' E 103°45'0 0.0
2017-Nov-29 07:30N 01°17' E 103°45'0 0.0
2017-Nov-29 06:57N 01°17' E 103°45'0 0.0
2017-Nov-29 06:27N 01°17' E 103°45'0 0.0
2017-Nov-29 06:00N 01°17' E 103°45'0 0.0
2017-Nov-29 05:30N 01°17' E 103°45'0 0.0
2017-Nov-29 05:00N 01°17' E 103°45'0 0.0
2017-Nov-29 04:30N 01°17' E 103°45'0 0.0
2017-Nov-29 04:00N 01°17' E 103°45'0 0.0
2017-Nov-29 03:30N 01°17' E 103°45'0 0.0
2017-Nov-29 02:57N 01°17' E 103°45'0 0.0
2017-Nov-29 02:30N 01°17' E 103°45'0 0.0
2017-Nov-29 02:00N 01°17' E 103°45'0 0.0
2017-Nov-29 01:30N 01°17' E 103°45'0 0.0
2017-Nov-29 01:00N 01°17' E 103°45'0 0.0
2017-Nov-29 00:30N 01°17' E 103°45'0 0.0
2017-Nov-29 00:00N 01°17' E 103°45'0 0.0
2017-Nov-28 23:30N 01°17' E 103°45'0 0.0
2017-Nov-28 23:00N 01°17' E 103°45'1 1.2
2017-Nov-28 22:31N 01°17' E 103°45'2 4.7
2017-Nov-28 22:00N 01°15' E 103°46'510.6
2017-Nov-28 21:30N 01°13' E 103°51'4 8.0
2017-Nov-28 21:00N 01°14' E 103°55'510.1
2017-Nov-28 20:30N 01°15' E 103°60'  
2017-Nov-20 00:29N 35°27' E 139°41'0 0.0
2017-Nov-19 23:59N 35°27' E 139°41'0 0.0
2017-Nov-19 23:29N 35°27' E 139°41'0 0.0
2017-Nov-19 22:59N 35°27' E 139°41'0 0.0
2017-Nov-19 22:29N 35°27' E 139°41'0 0.1
2017-Nov-19 22:00N 35°27' E 139°41'2 3.8
2017-Nov-19 21:30N 35°25' E 139°42'1 1.0
2017-Nov-19 20:59N 35°25' E 139°43'0 0.1
2017-Nov-19 20:29N 35°25' E 139°43'0 0.0
2017-Nov-19 19:59N 35°25' E 139°43'0 0.1
2017-Nov-19 19:29N 35°25' E 139°43'0 0.0
2017-Nov-19 18:59N 35°25' E 139°43'0 0.2
2017-Nov-19 18:29N 35°25' E 139°43'0 0.0
2017-Nov-19 17:59N 35°25' E 139°43'0 0.1
2017-Nov-19 17:29N 35°25' E 139°43'0 0.1
2017-Nov-19 16:59N 35°25' E 139°43'0 0.1
2017-Nov-19 16:29N 35°25' E 139°43'0 0.0
2017-Nov-19 15:59N 35°25' E 139°43'0 0.1
2017-Nov-19 15:29N 35°25' E 139°43'0 0.1
2017-Nov-19 14:59N 35°25' E 139°43'0 0.0
2017-Nov-19 14:26N 35°25' E 139°43'0 0.1
2017-Nov-19 13:59N 35°25' E 139°43'0 0.1
2017-Nov-19 13:29N 35°25' E 139°43'0 0.0
2017-Nov-19 12:59N 35°25' E 139°43'0 0.4
2017-Nov-19 12:29N 35°25' E 139°42'  

Dump ship's entire track history